EDDP/LEJ METAR and TAF weather

Enter ICAO airport designator
Station Type Date Time Source
EDDP METAR 2021/09/16 10:50 UTC NOAA

EDDP 161050Z 29006KT 260V320 9999 FEW018 SCT024 BKN033 17/14 Q1014 NOSIG


Station Type Date Time Source
EDDP Decoded METAR 2021/09/16 10:50 UTC NOAA

Leipzig-Schkeuditz, Germany (EDDP) 51-25N 012-14E 149M
Sep 16, 2021 - 06:50 AM EDT / 2021.09.16 1050 UTC
Wind: from the WNW (290 degrees) at 7 MPH (6 KT) (direction variable):0
Visibility: greater than 7 mile(s):0
Sky conditions: mostly cloudy
Temperature: 62 F (17 C)
Dew Point: 57 F (14 C)
Relative Humidity: 82%
Pressure (altimeter): 29.94 in. Hg (1014 hPa)
ob: EDDP 161050Z 29006KT 260V320 9999 FEW018 SCT024 BKN033 17/14 Q1014 NOSIG
cycle: 11

Station Type Date Time Source
EDDP TAF 2021/09/16 06:27 UTC NOAA

TAF EDDP 160500Z 1606/1706 28008KT 9999 SCT025
TEMPO 1606/1608 4500 -DZ BKN009

Example: see airport list